LTBI/ESK METAR and TAF weather

Enter ICAO airport designator
Station Type Date Time Source
LTBI METAR 2021/09/28 16:50 UTC NOAA

LTBI 281650Z 28008KT CAVOK 16/09 Q1018 NOSIG RMK RWY08 29010KT


Station Type Date Time Source
LTBI Decoded METAR 2021/09/28 16:50 UTC NOAA

Eskisehir, Turkey (LTBI) 39-47N 030-34E 785M
Sep 28, 2021 - 12:50 PM EDT / 2021.09.28 1650 UTC
Wind: from the W (280 degrees) at 9 MPH (8 KT):0
Visibility: greater than 7 mile(s):0
Temperature: 60 F (16 C)
Dew Point: 48 F (9 C)
Relative Humidity: 63%
Pressure (altimeter): 30.06 in. Hg (1018 hPa)
ob: LTBI 281650Z 28008KT CAVOK 16/09 Q1018 NOSIG RMK RWY08 29010KT
cycle: 17

Station Type Date Time Source
LTBI TAF 2012/05/11 09:09 UTC NOAA

TAF LTBI 110740Z 1109/1121 VRB02KT 6000 -SHRA BKN030 BKN090
TEMPO 1112/1116 33015KT 4000 -TSRA FEW025CB BKN030

Example: see airport list